Time;durP1;ratioP1;P1;durP2;ratioP2;P2;SDS_P1;SDS_P2;PMS_P1;PMS_P2;Temp;Humidity;BMP_temperature;BMP_pressure;BME280_temperature;BME280_humidity;BME280_pressure;Samples;Min_cycle;Max_cycle;Signal;HPM_P1;HPM_P2
2021/05/21 00:01:51;;;;;;;2.40;1.63;;;14.40;45.20;;;;;;6103395;23;20368;-92
2021/05/21 00:04:19;;;;;;;1.70;1.60;;;14.10;45.50;;;;;;6104202;23;20515;-92
2021/05/21 00:06:44;;;;;;;5.63;1.70;;;14.30;45.70;;;;;;6103368;23;20184;-88
2021/05/21 00:09:10;;;;;;;1.53;1.43;;;14.20;45.50;;;;;;6102352;23;20373;-88
2021/05/21 00:11:46;;;;;;;1.53;1.43;;;14.20;45.50;;;;;;6102405;23;20180;-88
2021/05/21 00:14:12;;;;;;;2.60;1.53;;;14.10;45.90;;;;;;6128350;23;20167;-88
2021/05/21 00:16:46;;;;;;;1.93;1.70;;;14.10;45.90;;;;;;6102131;23;20702;-87
2021/05/21 00:19:11;;;;;;;1.83;1.40;;;14.00;45.70;;;;;;6104077;23;20186;-91
2021/05/21 00:21:37;;;;;;;3.10;1.63;;;14.10;45.80;;;;;;6104439;23;20416;-91
2021/05/21 00:24:05;;;;;;;2.10;1.40;;;14.00;45.80;;;;;;6132605;23;20647;-90
2021/05/21 00:26:31;;;;;;;2.30;2.10;;;14.20;45.80;;;;;;6132824;23;20186;-91
2021/05/21 00:28:57;;;;;;;1.50;1.40;;;13.90;46.20;;;;;;6132489;23;20383;-92
2021/05/21 00:31:24;;;;;;;2.80;1.40;;;13.90;46.50;;;;;;6131993;23;20151;-91
2021/05/21 00:33:50;;;;;;;1.37;1.27;;;13.80;46.20;;;;;;6132168;23;20171;-91
2021/05/21 00:36:16;;;;;;;2.53;2.10;;;13.70;46.40;;;;;;6133114;23;20383;-91
2021/05/21 00:38:44;;;;;;;3.05;1.33;;;13.60;46.40;;;;;;6132292;23;20230;-91
2021/05/21 00:41:10;;;;;;;2.00;1.63;;;13.70;46.50;;;;;;6131962;23;20144;-91
2021/05/21 00:44:13;;;;;;;1.30;1.20;;;13.50;46.40;;;;;;6132999;23;20407;-91
2021/05/21 00:46:39;;;;;;;1.77;1.67;;;13.70;46.20;;;;;;6132481;23;20140;-91
2021/05/21 00:49:23;;;;;;;1.40;1.20;;;14.00;46.30;;;;;;6132214;23;20474;-91
2021/05/21 00:51:49;;;;;;;1.40;1.30;;;13.70;46.50;;;;;;6132289;23;20378;-91
2021/05/21 00:54:31;;;;;;;1.53;1.43;;;13.70;45.80;;;;;;6132729;23;20780;-91
2021/05/21 00:56:57;;;;;;;1.50;1.40;;;13.60;45.80;;;;;;6132323;23;20151;-91
2021/05/21 00:59:34;;;;;;;1.63;1.53;;;13.90;46.40;;;;;;6132298;23;20384;-91
2021/05/21 01:02:00;;;;;;;1.50;1.40;;;13.60;46.30;;;;;;6132800;23;20649;-91
2021/05/21 01:04:50;;;;;;;2.43;2.23;;;13.60;46.30;;;;;;6131937;23;20490;-91
2021/05/21 01:07:15;;;;;;;4.30;1.80;;;14.00;46.50;;;;;;6132198;23;20409;-91
2021/05/21 01:10:00;;;;;;;1.60;1.50;;;13.70;46.30;;;;;;6132255;23;20823;-91
2021/05/21 01:12:26;;;;;;;1.40;1.30;;;13.60;46.40;;;;;;6132714;23;20230;-91
2021/05/21 01:15:01;;;;;;;3.03;2.00;;;13.50;46.50;;;;;;6133298;23;20910;-92
2021/05/21 01:17:30;;;;;;;1.37;1.27;;;13.50;46.40;;;;;;6132672;23;20147;-92
2021/05/21 01:20:29;;;;;;;8.00;2.00;;;13.10;47.00;;;;;;6133829;23;20407;-92
2021/05/21 01:22:55;;;;;;;3.83;1.95;;;13.30;47.10;;;;;;6116055;23;20662;-93
2021/05/21 01:25:20;;;;;;;1.60;1.50;;;13.20;46.70;;;;;;6103088;23;20152;-92
2021/05/21 01:28:06;;;;;;;1.87;1.77;;;13.10;46.50;;;;;;6103454;23;20176;-92
2021/05/21 01:30:32;;;;;;;2.15;1.98;;;13.40;46.80;;;;;;6102678;23;20148;-92
2021/05/21 01:33:19;;;;;;;3.47;1.40;;;13.50;46.70;;;;;;6103169;23;20565;-91
2021/05/21 01:35:44;;;;;;;4.50;1.60;;;13.60;46.50;;;;;;6102555;23;20517;-92
2021/05/21 01:38:12;;;;;;;1.90;1.57;;;13.40;46.50;;;;;;6102833;23;20167;-92
2021/05/21 01:40:41;;;;;;;3.30;1.92;;;13.50;46.60;;;;;;6103294;23;20141;-92
2021/05/21 01:43:07;;;;;;;2.40;2.20;;;13.40;46.60;;;;;;6104905;23;20145;-91
2021/05/21 01:45:34;;;;;;;1.93;1.83;;;13.50;46.60;;;;;;6104980;23;20191;-92
2021/05/21 01:48:03;;;;;;;1.70;1.60;;;13.40;46.40;;;;;;6104821;23;20145;-92
2021/05/21 01:50:29;;;;;;;1.83;1.73;;;13.50;46.50;;;;;;6104884;23;20796;-92
2021/05/21 01:53:26;;;;;;;1.80;1.70;;;13.40;47.20;;;;;;6105271;23;20179;-92
2021/05/21 01:55:52;;;;;;;1.40;1.30;;;13.40;46.70;;;;;;6105900;23;20295;-91
2021/05/21 01:58:17;;;;;;;1.50;1.40;;;13.50;46.80;;;;;;6104903;23;20383;-92
2021/05/21 02:00:43;;;;;;;1.53;1.43;;;13.80;46.80;;;;;;6104815;23;20483;-91
2021/05/21 02:03:09;;;;;;;1.77;1.50;;;13.40;46.40;;;;;;6105009;23;20191;-91
2021/05/21 02:06:08;;;;;;;2.03;1.60;;;13.60;46.40;;;;;;6104587;23;20200;-91
2021/05/21 02:08:34;;;;;;;1.80;1.57;;;13.90;46.50;;;;;;6104813;23;20164;-92
2021/05/21 02:11:02;;;;;;;1.87;1.50;;;13.50;46.30;;;;;;6104787;23;20376;-91
2021/05/21 02:13:28;;;;;;;2.17;1.60;;;13.30;46.30;;;;;;6104876;23;20149;-92
2021/05/21 02:15:53;;;;;;;2.60;1.57;;;13.40;47.10;;;;;;6105075;23;20459;-92
2021/05/21 02:18:48;;;;;;;1.57;1.47;;;13.30;47.70;;;;;;6104868;23;20145;-91
2021/05/21 02:21:14;;;;;;;1.70;1.60;;;13.40;47.80;;;;;;6103960;23;20513;-92
2021/05/21 02:23:40;;;;;;;2.55;2.35;;;13.20;48.10;;;;;;6129784;23;20203;-92
2021/05/21 02:26:36;;;;;;;2.30;1.87;;;13.40;48.50;;;;;;6158197;23;20155;-92
2021/05/21 02:29:03;;;;;;;6.33;1.90;;;13.30;48.50;;;;;;6157986;23;20381;-92
2021/05/21 02:32:13;;;;;;;2.45;2.25;;;13.50;48.70;;;;;;6158300;23;20378;-91
2021/05/21 02:34:38;;;;;;;2.28;1.90;;;13.20;48.60;;;;;;6157963;23;20178;-91
2021/05/21 02:37:11;;;;;;;2.07;1.87;;;13.30;48.90;;;;;;6158006;23;20544;-91
2021/05/21 02:39:38;;;;;;;2.15;2.00;;;12.90;48.50;;;;;;6158950;23;20158;-91
2021/05/21 02:42:04;;;;;;;2.20;2.00;;;12.60;49.00;;;;;;6158062;23;20197;-92
2021/05/21 02:44:52;;;;;;;1.60;1.50;;;12.40;49.50;;;;;;6157429;23;20156;-92
2021/05/21 02:47:18;;;;;;;2.72;2.13;;;12.50;49.30;;;;;;6157986;23;20150;-91
2021/05/21 02:49:56;;;;;;;1.77;1.67;;;12.80;49.40;;;;;;6157681;23;20175;-91
2021/05/21 02:52:22;;;;;;;1.75;1.65;;;12.80;49.20;;;;;;6157866;23;20175;-91
2021/05/21 02:55:07;;;;;;;2.03;1.92;;;12.90;49.30;;;;;;6157865;23;20195;-91
2021/05/21 02:57:33;;;;;;;1.60;1.50;;;12.90;49.20;;;;;;6157559;23;20143;-91
2021/05/21 02:59:59;;;;;;;2.40;1.90;;;12.80;48.80;;;;;;6158133;23;20136;-91
2021/05/21 03:02:30;;;;;;;3.43;1.63;;;12.90;48.40;;;;;;6158675;23;20144;-91
2021/05/21 03:04:56;;;;;;;2.03;1.92;;;13.00;48.30;;;;;;6157150;23;20764;-91
2021/05/21 03:07:22;;;;;;;2.35;2.15;;;12.90;48.60;;;;;;6157458;23;20458;-92
2021/05/21 03:09:48;;;;;;;2.37;2.17;;;12.80;48.90;;;;;;6158010;23;20147;-91
2021/05/21 03:12:34;;;;;;;2.20;2.00;;;12.70;49.10;;;;;;6157746;23;20375;-91
2021/05/21 03:14:59;;;;;;;2.35;2.15;;;12.80;49.20;;;;;;6157560;23;20411;-91
2021/05/21 03:17:33;;;;;;;3.60;2.63;;;12.80;49.40;;;;;;6157626;23;20144;-91
2021/05/21 03:19:59;;;;;;;2.08;1.98;;;12.80;49.50;;;;;;6157735;23;20530;-90
2021/05/21 03:22:37;;;;;;;2.10;1.90;;;12.70;49.50;;;;;;6152534;23;20211;-91
2021/05/21 03:25:04;;;;;;;2.53;2.35;;;12.60;49.40;;;;;;6103654;23;20156;-91
2021/05/21 03:28:04;;;;;;;2.40;1.60;;;12.50;49.40;;;;;;6103967;23;20152;-91
2021/05/21 03:30:30;;;;;;;2.28;2.08;;;12.60;49.00;;;;;;6104190;23;20227;-91
2021/05/21 03:33:16;;;;;;;1.73;1.63;;;12.80;49.20;;;;;;6104261;23;20573;-92
2021/05/21 03:35:42;;;;;;;2.45;2.00;;;12.60;48.70;;;;;;6103968;23;20168;-91
2021/05/21 03:38:38;;;;;;;1.67;1.55;;;12.60;48.50;;;;;;6104122;23;20169;-91
2021/05/21 03:41:05;;;;;;;2.15;1.95;;;12.70;48.60;;;;;;6103766;23;20224;-91
2021/05/21 03:43:38;;;;;;;2.13;1.50;;;12.50;48.50;;;;;;6103878;23;20526;-91
2021/05/21 03:46:04;;;;;;;2.15;1.95;;;12.50;48.40;;;;;;6103812;23;20144;-91
2021/05/21 03:48:30;;;;;;;2.53;2.03;;;12.40;48.50;;;;;;6103432;23;20569;-91
2021/05/21 03:51:09;;;;;;;1.85;1.75;;;12.30;48.70;;;;;;6103675;23;20576;-91
2021/05/21 03:53:34;;;;;;;2.65;2.45;;;12.30;48.40;;;;;;6103161;23;20140;-91
2021/05/21 03:56:00;;;;;;;1.63;1.53;;;12.30;48.40;;;;;;6103561;23;20468;-92
2021/05/21 03:58:35;;;;;;;1.80;1.63;;;12.30;48.30;;;;;;6103831;23;20144;-91
2021/05/21 04:01:02;;;;;;;2.80;1.77;;;12.40;48.80;;;;;;6103628;23;20647;-91
2021/05/21 04:03:39;;;;;;;1.90;1.70;;;12.40;48.90;;;;;;6129732;23;20519;-91
2021/05/21 04:06:04;;;;;;;1.85;1.75;;;12.30;49.00;;;;;;6103650;23;20144;-91
2021/05/21 04:08:36;;;;;;;1.73;1.53;;;12.50;48.90;;;;;;6104046;23;20148;-91
2021/05/21 04:11:02;;;;;;;1.90;1.80;;;12.50;48.90;;;;;;6103771;23;20168;-92
2021/05/21 04:13:28;;;;;;;1.53;1.43;;;12.30;48.60;;;;;;6103472;23;20187;-91
2021/05/21 04:16:05;;;;;;;1.60;1.50;;;12.30;48.20;;;;;;6103387;23;20172;-91
2021/05/21 04:18:31;;;;;;;1.88;1.55;;;12.50;48.20;;;;;;6103689;23;20175;-92
2021/05/21 04:21:28;;;;;;;1.60;1.50;;;12.40;48.10;;;;;;6104344;23;20164;-91
2021/05/21 04:23:55;;;;;;;1.95;1.50;;;12.70;48.30;;;;;;6119264;23;20206;-90
2021/05/21 04:26:27;;;;;;;2.85;1.85;;;12.40;48.00;;;;;;6132969;23;20148;-90
2021/05/21 04:28:53;;;;;;;1.50;1.40;;;12.50;48.10;;;;;;6132854;23;20144;-90
2021/05/21 04:31:48;;;;;;;2.30;2.10;;;12.50;48.50;;;;;;6133452;23;20159;-90
2021/05/21 04:34:14;;;;;;;2.17;1.80;;;12.50;48.40;;;;;;6132679;23;20179;-90
2021/05/21 04:36:42;;;;;;;2.10;2.00;;;12.50;48.20;;;;;;6133022;23;20475;-90
2021/05/21 04:39:07;;;;;;;2.25;2.00;;;12.50;48.00;;;;;;6132478;23;20143;-89
2021/05/21 04:41:40;;;;;;;1.80;1.70;;;12.50;47.80;;;;;;6131868;23;20175;-89
2021/05/21 04:44:06;;;;;;;2.20;2.10;;;12.90;48.20;;;;;;6131878;23;20487;-90
2021/05/21 04:46:50;;;;;;;2.27;2.07;;;12.40;47.50;;;;;;6135145;23;20148;-89
2021/05/21 04:49:32;;;;;;;2.97;2.78;;;12.80;47.70;;;;;;6158239;23;20138;-90
2021/05/21 04:52:09;;;;;;;3.47;3.15;;;12.80;47.60;;;;;;6151198;23;20155;-90
2021/05/21 04:54:42;;;;;;;3.03;2.78;;;12.90;47.40;;;;;;6132136;23;20180;-91
2021/05/21 04:57:08;;;;;;;3.20;3.00;;;12.90;47.10;;;;;;6132491;23;20171;-90
2021/05/21 04:59:52;;;;;;;2.50;2.30;;;13.10;47.20;;;;;;6132580;23;20509;-90
2021/05/21 05:02:17;;;;;;;5.37;2.63;;;13.00;47.10;;;;;;6132768;23;20150;-90
2021/05/21 05:04:55;;;;;;;2.73;2.57;;;13.20;46.50;;;;;;6132348;23;20711;-90
2021/05/21 05:07:21;;;;;;;3.20;2.85;;;13.30;46.30;;;;;;6132761;23;20568;-90
2021/05/21 05:09:47;;;;;;;2.70;2.50;;;13.00;45.80;;;;;;6132744;23;20157;-90
2021/05/21 05:12:12;;;;;;;2.67;2.20;;;13.30;46.40;;;;;;6132724;23;20208;-91
2021/05/21 05:14:43;;;;;;;2.20;2.03;;;13.30;46.10;;;;;;6133325;23;20411;-93
2021/05/21 05:17:08;;;;;;;2.20;2.00;;;13.10;45.70;;;;;;6133802;23;20148;-89
2021/05/21 05:19:34;;;;;;;2.73;2.00;;;13.50;46.10;;;;;;6132453;23;20218;-89
2021/05/21 05:22:33;;;;;;;2.70;2.50;;;13.40;45.70;;;;;;6131883;23;20151;-88
2021/05/21 05:24:59;;;;;;;2.00;1.90;;;13.60;45.40;;;;;;6103575;23;20196;-89
2021/05/21 05:27:31;;;;;;;2.33;2.00;;;13.70;45.40;;;;;;6102598;23;20189;-88
2021/05/21 05:29:58;;;;;;;2.30;1.97;;;13.90;45.10;;;;;;6103656;23;20155;-88
2021/05/21 05:32:54;;;;;;;1.70;1.60;;;13.80;44.90;;;;;;6102990;23;20718;-89
2021/05/21 05:35:20;;;;;;;2.50;2.23;;;14.10;44.70;;;;;;6103802;23;20426;-88
2021/05/21 05:38:05;;;;;;;2.30;2.10;;;13.90;44.80;;;;;;6102892;23;20377;-88
2021/05/21 05:40:32;;;;;;;2.37;2.17;;;14.00;44.30;;;;;;6102673;23;20640;-88
2021/05/21 05:42:58;;;;;;;4.67;2.23;;;14.40;44.80;;;;;;6103128;23;20375;-88
2021/05/21 05:46:13;;;;;;;2.30;2.10;;;14.10;44.50;;;;;;6103242;23;20376;-88
2021/05/21 05:48:39;;;;;;;3.57;2.63;;;14.30;44.20;;;;;;6103458;23;20573;-90
2021/05/21 05:51:05;;;;;;;4.73;2.50;;;14.40;44.10;;;;;;6104623;23;20383;-90
2021/05/21 05:53:54;;;;;;;1.90;1.70;;;14.40;43.40;;;;;;6103445;23;20149;-88
2021/05/21 05:56:19;;;;;;;1.83;1.73;;;14.50;43.80;;;;;;6103469;23;20960;-88
2021/05/21 05:58:45;;;;;;;3.80;2.33;;;14.60;43.60;;;;;;6103202;23;20368;-87
2021/05/21 06:01:11;;;;;;;3.37;2.00;;;14.80;43.10;;;;;;6103958;23;20232;-88
2021/05/21 06:03:57;;;;;;;4.10;2.17;;;15.10;43.30;;;;;;6103435;23;20427;-87
2021/05/21 06:06:23;;;;;;;1.90;1.80;;;15.20;42.20;;;;;;6103789;23;20160;-87
2021/05/21 06:08:48;;;;;;;2.07;1.87;;;15.50;41.90;;;;;;6102595;23;20400;-87
2021/05/21 06:11:43;;;;;;;2.30;1.93;;;15.30;42.00;;;;;;6102739;23;20152;-88
2021/05/21 06:14:09;;;;;;;1.87;1.60;;;15.50;41.60;;;;;;6103368;23;20180;-88
2021/05/21 06:16:58;;;;;;;1.47;1.37;;;15.60;40.70;;;;;;6103223;23;20716;-87
2021/05/21 06:19:34;;;;;;;1.80;1.30;;;15.80;40.90;;;;;;6129757;23;20148;-88
2021/05/21 06:22:01;;;;;;;2.43;1.50;;;15.70;40.40;;;;;;6103677;23;20519;-85
2021/05/21 06:24:28;;;;;;;1.70;1.30;;;16.00;40.60;;;;;;6122746;23;20426;-86
2021/05/21 06:29:39;;;;;;;2.00;1.90;;;16.20;40.10;;;;;;6159756;23;20363;-91
2021/05/21 06:32:33;;;;;;;1.90;1.80;;;16.40;39.90;;;;;;6131921;23;20375;-87
2021/05/21 06:34:59;;;;;;;2.13;1.50;;;16.40;39.70;;;;;;6158688;23;20403;-86
2021/05/21 06:37:28;;;;;;;2.37;1.73;;;16.50;40.00;;;;;;6132375;23;20559;-87
2021/05/21 06:39:54;;;;;;;1.90;1.77;;;16.50;38.80;;;;;;6134528;23;20591;-93
2021/05/21 06:43:15;;;;;;;2.57;2.13;;;16.70;38.90;;;;;;6133892;23;20403;-90
2021/05/21 06:45:42;;;;;;;2.10;1.90;;;16.70;38.90;;;;;;6132537;23;20151;-87
2021/05/21 06:48:08;;;;;;;3.37;2.60;;;16.70;38.50;;;;;;6133757;23;20376;-93
2021/05/21 06:50:33;;;;;;;3.73;3.43;;;16.70;38.60;;;;;;6132227;23;20458;-87
2021/05/21 06:52:59;;;;;;;4.30;2.60;;;16.60;38.50;;;;;;6132415;23;20769;-86
2021/05/21 06:55:53;;;;;;;6.67;2.30;;;16.80;39.10;;;;;;6158523;23;20406;-87
2021/05/21 06:58:19;;;;;;;5.00;2.17;;;16.60;39.40;;;;;;6135537;23;20390;-86
2021/05/21 07:00:49;;;;;;;3.57;2.90;;;16.60;39.30;;;;;;6134477;23;20454;-86
2021/05/21 07:03:16;;;;;;;2.00;1.63;;;16.80;38.90;;;;;;6132009;23;20371;-86
2021/05/21 07:06:02;;;;;;;2.53;2.00;;;16.60;39.10;;;;;;6133029;23;20378;-86
2021/05/21 07:08:28;;;;;;;2.23;2.03;;;16.60;38.50;;;;;;6133244;23;20851;-86
2021/05/21 07:10:56;;;;;;;2.87;2.27;;;16.80;38.70;;;;;;6135598;23;20379;-86
2021/05/21 07:13:22;;;;;;;4.80;2.20;;;16.70;38.30;;;;;;6133158;23;20470;-88
2021/05/21 07:15:49;;;;;;;2.97;2.20;;;16.90;38.20;;;;;;6132945;23;20439;-85
2021/05/21 07:18:14;;;;;;;2.53;1.90;;;17.00;38.20;;;;;;6134564;23;20739;-94
2021/05/21 07:20:42;;;;;;;3.43;2.70;;;17.20;38.30;;;;;;6133344;23;20375;-89
2021/05/21 07:23:10;;;;;;;5.17;2.50;;;17.40;38.10;;;;;;6132337;23;20147;-88
2021/05/21 07:25:36;;;;;;;2.43;1.83;;;17.60;37.90;;;;;;6128296;23;20379;-88
2021/05/21 07:28:11;;;;;;;3.47;2.40;;;17.70;37.50;;;;;;6102736;23;20372;-88
2021/05/21 07:30:36;;;;;;;3.80;2.40;;;18.00;37.20;;;;;;6103077;23;20175;-88
2021/05/21 07:33:02;;;;;;;3.03;2.00;;;18.00;37.70;;;;;;6104515;23;20372;-92
2021/05/21 07:35:55;;;;;;;3.87;2.13;;;18.20;37.20;;;;;;6105602;23;20187;-92
2021/05/21 07:38:20;;;;;;;4.90;2.73;;;18.40;36.50;;;;;;6105379;23;20164;-92
2021/05/21 07:41:14;;;;;;;2.77;2.57;;;18.60;36.30;;;;;;6106104;23;20436;-92
2021/05/21 07:43:40;;;;;;;3.03;2.63;;;18.90;35.80;;;;;;6105553;23;20520;-92
2021/05/21 07:46:08;;;;;;;2.53;2.33;;;18.90;35.60;;;;;;6081339;23;20387;-90
2021/05/21 07:48:39;;;;;;;3.23;2.07;;;19.10;34.90;;;;;;6107011;23;20391;-92
2021/05/21 07:51:05;;;;;;;3.40;2.10;;;19.10;34.50;;;;;;6108124;23;20465;-89
2021/05/21 07:53:35;;;;;;;3.50;2.20;;;19.40;34.60;;;;;;6107438;23;20351;-92
2021/05/21 07:56:03;;;;;;;3.13;2.83;;;19.50;33.50;;;;;;6106553;23;20187;-93
2021/05/21 08:01:51;;;;;;;3.97;2.57;;;19.80;32.90;;;;;;6135196;23;20340;-91
2021/05/21 08:04:24;;;;;;;5.00;2.03;;;20.00;32.70;;;;;;6108738;23;20380;-93
2021/05/21 08:06:50;;;;;;;2.37;1.90;;;19.90;32.10;;;;;;6109135;23;20187;-89
2021/05/21 08:09:17;;;;;;;3.67;2.07;;;20.00;32.30;;;;;;6107674;23;20814;-91
2021/05/21 08:12:03;;;;;;;3.13;1.97;;;20.10;32.30;;;;;;6104427;23;20243;-92
2021/05/21 08:14:29;;;;;;;2.40;1.90;;;20.10;32.30;;;;;;6133287;23;20470;-92
2021/05/21 08:20:42;;;;;;;2.50;0.97;;;19.70;30.00;;;;;;6133645;23;20150;-94
2021/05/21 08:23:08;;;;;;;4.00;1.83;;;19.40;30.20;;;;;;6106604;23;20431;-93
2021/05/21 08:25:33;;;;;;;1.93;1.10;;;19.40;30.70;;;;;;6159359;23;20430;-93
2021/05/21 08:28:22;;;;;;;2.87;1.40;;;19.50;30.40;;;;;;6161351;23;20143;-92
2021/05/21 08:30:48;;;;;;;2.78;1.00;;;19.50;29.60;;;;;;6158930;23;20448;-93
2021/05/21 08:34:06;;;;;;;2.75;1.20;;;19.00;29.40;;;;;;6158624;23;20388;-93
2021/05/21 08:36:32;;;;;;;1.57;1.00;;;18.90;29.90;;;;;;6158722;23;20243;-92
2021/05/21 08:39:39;;;;;;;1.17;0.90;;;18.70;30.50;;;;;;6161362;23;20383;-93
2021/05/21 08:42:07;;;;;;;2.30;0.80;;;18.50;31.10;;;;;;6159231;23;20495;-91
2021/05/21 08:44:35;;;;;;;1.20;0.90;;;18.30;31.80;;;;;;6158826;23;20377;-94
2021/05/21 08:47:36;;;;;;;1.73;1.10;;;18.40;32.10;;;;;;6158529;23;20186;-93
2021/05/21 08:50:04;;;;;;;1.10;1.00;;;18.20;33.10;;;;;;6157965;23;20375;-93
2021/05/21 08:52:49;;;;;;;1.47;1.17;;;18.10;33.90;;;;;;6159037;23;20437;-93
2021/05/21 08:55:16;;;;;;;2.00;1.00;;;17.50;34.00;;;;;;6159818;23;20909;-94
2021/05/21 08:57:44;;;;;;;1.10;0.70;;;17.60;34.10;;;;;;6161127;23;20383;-94
2021/05/21 09:00:14;;;;;;;4.80;1.30;;;17.90;33.60;;;;;;6160343;23;20425;-93
2021/05/21 09:02:40;;;;;;;2.43;1.17;;;18.10;33.30;;;;;;6160605;23;20375;-93
2021/05/21 09:05:07;;;;;;;2.00;1.03;;;18.10;32.90;;;;;;6160569;23;20392;-93
2021/05/21 09:07:35;;;;;;;5.50;1.30;;;18.00;34.00;;;;;;6160664;23;20823;-92
2021/05/21 09:10:23;;;;;;;2.20;1.00;;;18.00;34.00;;;;;;6162134;23;20432;-93
2021/05/21 09:12:51;;;;;;;1.63;0.83;;;18.00;34.70;;;;;;6162203;23;20383;-93
2021/05/21 09:15:29;;;;;;;1.00;0.90;;;18.20;35.20;;;;;;6161647;23;20426;-93
2021/05/21 09:17:59;;;;;;;2.20;1.00;;;17.90;33.20;;;;;;6161045;23;20403;-92
2021/05/21 09:20:49;;;;;;;1.00;0.90;;;17.80;32.90;;;;;;6162482;23;20475;-93
2021/05/21 09:26:45;;;;;;;5.10;1.63;;;18.20;33.20;;;;;;6138264;23;20394;-93
2021/05/21 09:29:13;;;;;;;1.10;0.90;;;18.20;32.90;;;;;;6136495;23;20467;-92
2021/05/21 09:31:46;;;;;;;1.10;0.90;;;18.30;31.90;;;;;;6139906;23;20383;-94
2021/05/21 09:34:50;;;;;;;2.90;1.10;;;18.30;32.90;;;;;;6137593;23;20506;-93
2021/05/21 09:37:25;;;;;;;0.60;0.60;;;18.30;32.40;;;;;;6135123;23;20471;-92
2021/05/21 09:40:13;;;;;;;1.17;0.90;;;18.60;32.50;;;;;;6135102;23;20375;-93
2021/05/21 09:43:05;;;;;;;1.70;0.73;;;18.60;32.30;;;;;;6135641;23;20847;-93
2021/05/21 09:45:33;;;;;;;0.80;0.70;;;18.70;31.80;;;;;;6119797;23;20711;-94
2021/05/21 09:48:03;;;;;;;0.63;0.60;;;18.90;32.10;;;;;;6133316;23;20156;-91
2021/05/21 09:50:50;;;;;;;4.03;0.83;;;19.10;30.80;;;;;;6159699;23;20338;-92
2021/05/21 09:53:21;;;;;;;1.30;1.00;;;19.40;31.20;;;;;;6135201;23;20383;-93
2021/05/21 10:02:32;;;;;;;2.20;0.80;;;19.20;30.70;;;;;;6160160;23;20314;-92
2021/05/21 10:05:00;;;;;;;3.67;1.17;;;18.80;31.50;;;;;;6135333;23;20362;-92
2021/05/21 10:07:32;;;;;;;1.20;1.10;;;18.50;31.00;;;;;;6136189;23;20369;-93
2021/05/21 10:09:58;;;;;;;1.17;1.07;;;18.90;32.90;;;;;;6136071;23;20430;-93
2021/05/21 10:12:26;;;;;;;2.03;1.00;;;18.90;34.00;;;;;;6137156;23;20896;-92
2021/05/21 10:14:52;;;;;;;1.80;0.87;;;19.10;33.80;;;;;;6135487;23;20423;-92
2021/05/21 10:17:42;;;;;;;1.20;0.80;;;19.10;34.30;;;;;;6135118;23;20383;-92
2021/05/21 10:20:11;;;;;;;2.47;1.10;;;18.90;34.50;;;;;;6135177;23;20376;-93
2021/05/21 10:22:57;;;;;;;1.53;1.10;;;19.00;34.20;;;;;;6135836;23;20346;-92
2021/05/21 10:25:26;;;;;;;1.47;0.80;;;18.80;33.10;;;;;;6109161;23;20439;-93
2021/05/21 10:28:24;;;;;;;1.00;0.80;;;18.90;32.00;;;;;;6107432;23;20690;-94
2021/05/21 10:30:50;;;;;;;1.23;0.90;;;18.50;31.40;;;;;;6105613;23;20355;-92
2021/05/21 10:34:09;;;;;;;1.47;0.90;;;18.00;32.70;;;;;;6106045;23;20353;-94
2021/05/21 10:36:34;;;;;;;1.13;0.83;;;18.10;33.60;;;;;;6105908;23;20380;-92
2021/05/21 10:39:06;;;;;;;1.30;1.20;;;18.00;32.50;;;;;;6106198;23;20386;-93
2021/05/21 10:42:11;;;;;;;1.00;0.80;;;18.20;32.50;;;;;;6106579;23;20599;-92
2021/05/21 10:44:38;;;;;;;2.30;1.50;;;18.00;33.00;;;;;;6105963;23;20372;-92
2021/05/21 10:47:35;;;;;;;2.17;1.50;;;18.00;33.60;;;;;;6106620;23;20825;-92
2021/05/21 10:50:06;;;;;;;1.80;1.10;;;17.90;34.00;;;;;;6106058;23;20387;-92
2021/05/21 10:53:09;;;;;;;1.30;1.03;;;17.70;33.40;;;;;;6110785;23;20431;-92
2021/05/21 10:55:40;;;;;;;1.37;1.00;;;17.60;34.80;;;;;;6103050;23;20423;-86
2021/05/21 10:58:06;;;;;;;2.07;0.90;;;17.70;35.50;;;;;;6104881;23;20391;-89
2021/05/21 11:00:39;;;;;;;1.47;0.70;;;17.70;35.20;;;;;;6104287;23;20368;-91
2021/05/21 11:03:05;;;;;;;2.50;1.43;;;18.30;34.30;;;;;;6129783;23;20141;-88
2021/05/21 11:05:36;;;;;;;1.10;0.77;;;18.40;33.20;;;;;;6104933;23;20842;-90
2021/05/21 11:08:02;;;;;;;1.77;0.80;;;18.30;34.40;;;;;;6104806;23;20456;-91
2021/05/21 11:10:50;;;;;;;1.30;1.03;;;18.20;34.70;;;;;;6106817;23;20383;-92
2021/05/21 11:13:18;;;;;;;0.80;0.80;;;18.20;35.10;;;;;;6106723;23;20212;-92
2021/05/21 11:15:56;;;;;;;1.30;1.20;;;17.70;35.10;;;;;;6106113;23;20438;-92
2021/05/21 11:18:22;;;;;;;1.83;0.80;;;17.80;36.00;;;;;;6105240;23;20376;-93
2021/05/21 11:21:27;;;;;;;0.63;0.63;;;17.90;36.10;;;;;;6106071;23;20372;-92
2021/05/21 11:24:05;;;;;;;0.70;0.60;;;17.80;35.60;;;;;;6117463;23;20505;-92
2021/05/21 11:26:38;;;;;;;0.80;0.77;;;18.00;35.80;;;;;;6160087;23;20394;-93
2021/05/21 11:29:07;;;;;;;2.37;0.93;;;18.40;34.60;;;;;;6159650;23;20358;-92
2021/05/21 11:31:37;;;;;;;2.53;0.90;;;18.50;33.60;;;;;;6158114;23;20435;-92
2021/05/21 11:34:05;;;;;;;1.63;1.10;;;18.70;32.40;;;;;;6158584;23;20719;-93
2021/05/21 11:36:34;;;;;;;1.90;0.83;;;18.90;32.70;;;;;;6158925;23;20391;-92
2021/05/21 11:39:00;;;;;;;0.70;0.67;;;18.90;31.70;;;;;;6159140;23;20530;-92
2021/05/21 11:42:04;;;;;;;0.90;0.90;;;18.80;32.50;;;;;;6159586;23;20433;-91
2021/05/21 11:44:30;;;;;;;1.87;0.90;;;18.80;32.60;;;;;;6158788;23;20383;-92
2021/05/21 11:46:58;;;;;;;1.60;0.63;;;18.60;31.70;;;;;;6158381;23;20397;-93
2021/05/21 11:49:25;;;;;;;1.67;0.70;;;19.00;32.50;;;;;;6159360;23;20642;-94
2021/05/21 11:51:56;;;;;;;0.70;0.70;;;18.90;30.40;;;;;;6160130;23;20391;-93
2021/05/21 11:54:24;;;;;;;1.30;0.70;;;18.70;31.00;;;;;;6158698;23;20427;-92
2021/05/21 11:56:51;;;;;;;1.53;0.83;;;18.40;30.00;;;;;;6158322;23;20433;-92
2021/05/21 11:59:35;;;;;;;1.03;0.70;;;18.20;31.60;;;;;;6158009;23;20863;-90
2021/05/21 12:02:10;;;;;;;1.77;0.80;;;18.30;31.40;;;;;;6161553;23;20390;-90
2021/05/21 12:04:41;;;;;;;1.00;0.80;;;18.40;31.40;;;;;;6158854;23;20357;-90
2021/05/21 12:07:25;;;;;;;1.80;1.00;;;18.60;30.90;;;;;;6158117;23;20391;-92
2021/05/21 12:10:03;;;;;;;1.73;1.10;;;18.70;30.10;;;;;;6159037;23;20394;-94
2021/05/21 12:12:31;;;;;;;1.30;0.80;;;18.90;30.00;;;;;;6159046;23;20442;-91
2021/05/21 12:15:17;;;;;;;1.30;1.20;;;18.70;29.60;;;;;;6160210;23;20478;-92
2021/05/21 12:17:49;;;;;;;1.00;0.73;;;18.60;30.00;;;;;;6155515;23;20827;-91
2021/05/21 12:20:18;;;;;;;0.93;0.80;;;18.50;30.00;;;;;;6155998;23;21011;-91
2021/05/21 12:23:03;;;;;;;1.43;0.80;;;18.50;30.00;;;;;;6156210;23;20537;-91
2021/05/21 12:25:30;;;;;;;2.10;0.90;;;18.70;30.10;;;;;;6132723;23;21049;-90
2021/05/21 12:28:05;;;;;;;3.47;1.33;;;18.70;29.30;;;;;;6156916;23;20371;-91
2021/05/21 12:30:31;;;;;;;1.40;0.70;;;18.70;29.80;;;;;;6157467;23;20371;-91
2021/05/21 12:33:42;;;;;;;0.70;0.70;;;18.50;30.00;;;;;;6157245;23;20475;-91
2021/05/21 12:36:16;;;;;;;0.93;0.83;;;18.30;29.90;;;;;;6156463;23;20426;-92
2021/05/21 12:38:52;;;;;;;1.53;0.90;;;17.80;30.40;;;;;;6156216;23;20462;-91
2021/05/21 12:41:27;;;;;;;1.33;0.70;;;17.80;31.20;;;;;;6156284;23;20379;-91
2021/05/21 12:44:31;;;;;;;1.27;0.90;;;17.80;31.50;;;;;;6156297;23;20383;-91
2021/05/21 12:47:01;;;;;;;0.90;0.70;;;17.80;31.20;;;;;;6160195;23;20399;-93
2021/05/21 12:49:44;;;;;;;0.60;0.60;;;17.80;31.20;;;;;;6159719;23;20371;-92
2021/05/21 12:52:10;;;;;;;1.07;0.80;;;17.70;30.70;;;;;;6159906;23;20408;-92
2021/05/21 12:54:53;;;;;;;1.20;0.80;;;17.60;31.20;;;;;;6159570;23;20497;-91
2021/05/21 12:57:21;;;;;;;1.33;0.83;;;17.90;31.70;;;;;;6159269;23;20383;-92
2021/05/21 12:59:58;;;;;;;1.23;0.80;;;17.80;31.20;;;;;;6159803;23;20407;-92
2021/05/21 13:02:34;;;;;;;2.43;0.83;;;18.40;31.00;;;;;;6161515;23;20389;-94
2021/05/21 13:05:17;;;;;;;2.10;0.80;;;18.00;30.70;;;;;;6162011;23;20387;-95
2021/05/21 13:08:18;;;;;;;1.33;0.80;;;17.60;30.90;;;;;;6160245;23;20843;-92
2021/05/21 13:10:47;;;;;;;0.90;0.90;;;17.80;30.60;;;;;;6139571;23;20943;-93
2021/05/21 13:13:16;;;;;;;1.47;0.90;;;17.80;30.60;;;;;;6160653;23;20380;-90
2021/05/21 13:15:43;;;;;;;1.10;1.00;;;17.60;30.80;;;;;;6160455;23;20434;-92
2021/05/21 13:18:09;;;;;;;1.07;0.97;;;17.50;31.00;;;;;;6160703;23;20708;-92
2021/05/21 13:20:37;;;;;;;1.07;0.77;;;17.70;31.20;;;;;;6160651;23;20386;-91
2021/05/21 13:23:09;;;;;;;2.00;0.70;;;17.60;31.60;;;;;;6160825;23;20379;-91
2021/05/21 13:25:46;;;;;;;1.53;0.80;;;17.70;31.80;;;;;;6137732;23;20483;-92
2021/05/21 13:28:12;;;;;;;0.87;0.80;;;17.40;31.60;;;;;;6137032;23;20398;-93
2021/05/21 13:31:10;;;;;;;1.70;1.10;;;17.40;32.10;;;;;;6136953;23;20387;-93
2021/05/21 13:33:36;;;;;;;9.10;1.37;;;16.90;32.60;;;;;;6136753;23;20379;-92
2021/05/21 13:36:07;;;;;;;3.03;0.83;;;17.00;33.50;;;;;;6136221;23;20511;-90
2021/05/21 13:38:39;;;;;;;1.00;0.83;;;17.40;33.30;;;;;;6138564;23;20164;-91
2021/05/21 13:41:31;;;;;;;0.97;0.83;;;17.30;32.70;;;;;;6139168;23;20394;-91
2021/05/21 13:43:57;;;;;;;0.87;0.80;;;16.90;32.00;;;;;;6137050;23;20380;-91